Time;durP1;ratioP1;P1;durP2;ratioP2;P2;SDS_P1;SDS_P2;PMS_P1;PMS_P2;Temp;Humidity;BMP_temperature;BMP_pressure;BME280_temperature;BME280_humidity;BME280_pressure;Samples;Min_cycle;Max_cycle;Signal;HPM_P1;HPM_P2
2023/06/07 00:01:55;;;;;;;16.63;15.23;;;22.40;52.90;;;;;;4993433;28;20407;-50
2023/06/07 00:04:21;;;;;;;15.63;14.03;;;22.40;53.00;;;;;;4993423;28;20253;-53
2023/06/07 00:06:47;;;;;;;15.20;13.90;;;22.40;53.00;;;;;;4993064;28;21211;-53
2023/06/07 00:09:13;;;;;;;18.70;16.77;;;22.40;53.10;;;;;;4992947;28;20438;-54
2023/06/07 00:11:39;;;;;;;16.40;15.03;;;22.30;53.10;;;;;;4993277;28;20430;-55
2023/06/07 00:14:05;;;;;;;23.57;17.70;;;22.40;53.20;;;;;;4993249;28;20163;-52
2023/06/07 00:16:32;;;;;;;18.17;16.27;;;22.40;53.20;;;;;;4992975;28;20426;-52
2023/06/07 00:18:58;;;;;;;17.47;15.87;;;22.40;53.10;;;;;;4993024;28;20410;-52
2023/06/07 00:21:24;;;;;;;16.67;15.00;;;22.40;52.90;;;;;;4992879;28;20406;-53
2023/06/07 00:23:50;;;;;;;15.27;13.87;;;22.40;52.80;;;;;;4992922;28;20852;-53
2023/06/07 00:26:16;;;;;;;18.90;16.50;;;22.40;52.80;;;;;;4993054;28;20545;-55
2023/06/07 00:28:42;;;;;;;18.67;17.00;;;22.40;52.70;;;;;;4993023;28;20171;-52
2023/06/07 00:31:08;;;;;;;17.80;16.10;;;22.40;52.70;;;;;;4992373;28;20203;-55
2023/06/07 00:33:33;;;;;;;17.37;15.67;;;22.40;52.90;;;;;;4993046;28;20198;-51
2023/06/07 00:35:59;;;;;;;17.87;16.27;;;22.40;52.80;;;;;;4992906;28;20844;-53
2023/06/07 00:38:25;;;;;;;17.53;15.90;;;22.40;52.80;;;;;;4992771;28;20187;-55
2023/06/07 00:40:51;;;;;;;18.70;17.00;;;22.40;52.80;;;;;;4992664;28;21019;-51
2023/06/07 00:43:17;;;;;;;18.87;17.07;;;22.40;52.80;;;;;;4993118;28;20414;-55
2023/06/07 00:45:43;;;;;;;18.27;16.37;;;22.40;52.80;;;;;;4992566;28;20454;-55
2023/06/07 00:48:09;;;;;;;17.27;15.67;;;22.40;52.80;;;;;;4992636;28;20457;-53
2023/06/07 00:50:35;;;;;;;20.20;16.73;;;22.40;53.00;;;;;;4992573;28;20406;-52
2023/06/07 00:53:03;;;;;;;17.63;16.00;;;22.40;53.00;;;;;;4992594;28;20413;-55
2023/06/07 00:55:29;;;;;;;18.60;16.73;;;22.40;53.00;;;;;;4975151;28;20572;-53
2023/06/07 00:57:55;;;;;;;18.40;16.80;;;22.40;52.90;;;;;;4992536;28;20778;-52
2023/06/07 01:00:22;;;;;;;19.70;17.90;;;22.30;52.90;;;;;;4992357;28;20409;-56
2023/06/07 01:02:49;;;;;;;20.60;17.60;;;22.30;53.70;;;;;;4992783;28;20414;-52
2023/06/07 01:05:16;;;;;;;18.07;16.37;;;22.30;53.00;;;;;;4992496;28;20525;-51
2023/06/07 01:07:54;;;;;;;19.37;17.47;;;22.30;53.10;;;;;;4992307;28;20425;-55
2023/06/07 01:10:21;;;;;;;20.50;18.70;;;22.30;52.90;;;;;;4992515;28;20778;-55
2023/06/07 01:12:49;;;;;;;18.53;16.83;;;22.30;53.10;;;;;;4992754;28;20806;-53
2023/06/07 01:15:15;;;;;;;18.57;16.77;;;22.20;52.90;;;;;;4992366;28;20912;-52
2023/06/07 01:17:44;;;;;;;17.07;15.47;;;22.30;52.90;;;;;;4992597;28;20428;-53
2023/06/07 01:20:24;;;;;;;18.43;16.83;;;22.20;53.40;;;;;;4992143;28;20838;-56
2023/06/07 01:22:56;;;;;;;19.47;17.43;;;22.20;53.30;;;;;;4992400;28;20406;-52
2023/06/07 01:25:22;;;;;;;17.53;15.93;;;22.20;52.60;;;;;;4992388;28;20898;-54
2023/06/07 01:27:52;;;;;;;17.70;16.00;;;22.20;52.50;;;;;;4992290;28;20509;-54
2023/06/07 01:30:20;;;;;;;21.77;17.90;;;22.10;52.60;;;;;;4992117;28;20409;-51
2023/06/07 01:32:46;;;;;;;18.73;17.03;;;22.10;52.80;;;;;;4992461;28;20465;-52
2023/06/07 01:35:13;;;;;;;17.93;15.90;;;22.10;52.80;;;;;;4992405;28;20502;-53
2023/06/07 01:37:41;;;;;;;18.83;16.97;;;22.10;52.90;;;;;;4992236;28;20430;-50
2023/06/07 01:40:08;;;;;;;17.67;15.90;;;22.00;52.90;;;;;;4974564;28;20925;-50
2023/06/07 01:42:36;;;;;;;17.40;15.70;;;22.00;52.80;;;;;;4992200;28;20406;-55
2023/06/07 01:45:04;;;;;;;18.27;16.60;;;22.10;52.80;;;;;;4995714;28;20175;-55
2023/06/07 01:47:31;;;;;;;23.40;21.40;;;22.10;52.60;;;;;;4995757;28;20423;-51
2023/06/07 01:49:57;;;;;;;21.43;19.37;;;22.10;52.50;;;;;;4995872;28;20433;-54
2023/06/07 01:52:23;;;;;;;22.27;20.23;;;22.10;52.40;;;;;;4996103;28;20776;-53
2023/06/07 01:54:50;;;;;;;23.07;20.87;;;22.10;52.50;;;;;;4995837;28;20403;-52
2023/06/07 01:57:21;;;;;;;20.57;18.63;;;22.10;52.30;;;;;;4995729;28;20841;-53
2023/06/07 02:00:00;;;;;;;20.63;18.60;;;22.10;52.30;;;;;;4995398;28;20410;-52
2023/06/07 02:02:38;;;;;;;19.90;18.17;;;22.00;52.30;;;;;;4995710;28;20394;-51
2023/06/07 02:05:12;;;;;;;18.77;16.90;;;22.10;52.30;;;;;;4995463;28;20489;-55
2023/06/07 02:07:45;;;;;;;21.40;19.47;;;22.00;52.40;;;;;;4995480;28;20488;-54
2023/06/07 02:10:13;;;;;;;19.00;17.23;;;21.90;52.40;;;;;;4995543;28;20430;-52
2023/06/07 02:12:40;;;;;;;21.10;18.90;;;21.90;52.50;;;;;;4995431;28;20469;-54
2023/06/07 02:15:07;;;;;;;21.00;18.77;;;21.90;52.60;;;;;;4995526;28;20418;-54
2023/06/07 02:17:33;;;;;;;19.50;17.80;;;21.90;52.70;;;;;;4995514;28;20430;-51
2023/06/07 02:19:59;;;;;;;19.90;17.90;;;21.90;52.70;;;;;;4995090;28;20780;-52
2023/06/07 02:22:25;;;;;;;20.80;18.93;;;21.90;52.60;;;;;;4995391;28;20406;-54
2023/06/07 02:24:51;;;;;;;20.23;18.33;;;21.90;52.60;;;;;;4995305;28;20406;-54
2023/06/07 02:27:17;;;;;;;19.47;17.67;;;21.90;52.70;;;;;;4995098;28;20898;-52
2023/06/07 02:29:42;;;;;;;20.30;18.17;;;21.90;52.70;;;;;;4995098;28;20171;-53
2023/06/07 02:32:08;;;;;;;21.57;19.50;;;21.90;52.80;;;;;;4995142;28;20886;-55
2023/06/07 02:34:34;;;;;;;18.80;17.00;;;21.90;52.80;;;;;;4995085;28;20179;-55
2023/06/07 02:37:00;;;;;;;21.17;19.17;;;21.90;52.80;;;;;;4994809;28;20438;-53
2023/06/07 02:39:26;;;;;;;19.20;17.30;;;21.90;52.80;;;;;;4994739;28;20183;-53
2023/06/07 02:41:52;;;;;;;18.73;16.97;;;21.90;52.70;;;;;;4994969;28;20418;-53
2023/06/07 02:44:18;;;;;;;19.23;17.43;;;21.90;52.80;;;;;;4995014;28;20187;-52
2023/06/07 02:46:43;;;;;;;19.57;17.80;;;21.80;52.60;;;;;;4994839;28;20220;-56
2023/06/07 02:49:09;;;;;;;18.77;17.03;;;21.90;52.60;;;;;;4994658;28;20222;-55
2023/06/07 02:51:37;;;;;;;21.10;19.30;;;21.90;52.70;;;;;;4994590;28;20186;-53
2023/06/07 02:54:03;;;;;;;19.27;17.57;;;21.80;52.70;;;;;;4994284;28;20637;-54
2023/06/07 02:56:30;;;;;;;22.50;20.27;;;21.80;52.90;;;;;;4994548;28;20489;-56
2023/06/07 02:58:55;;;;;;;20.70;18.70;;;21.80;52.80;;;;;;4994521;28;20270;-53
2023/06/07 03:01:21;;;;;;;20.87;18.77;;;21.90;52.80;;;;;;4994373;28;20493;-55
2023/06/07 03:03:48;;;;;;;19.43;17.83;;;21.90;52.70;;;;;;4994779;28;20266;-52
2023/06/07 03:06:15;;;;;;;20.70;18.60;;;21.90;52.70;;;;;;4994265;28;20466;-55
2023/06/07 03:08:41;;;;;;;18.87;17.27;;;21.90;52.70;;;;;;4994389;28;20510;-52
2023/06/07 03:11:06;;;;;;;20.57;18.67;;;21.90;52.70;;;;;;4994354;28;20415;-54
2023/06/07 03:13:32;;;;;;;20.37;18.33;;;21.90;52.60;;;;;;4994398;28;20407;-56
2023/06/07 03:15:58;;;;;;;19.60;16.87;;;21.90;52.50;;;;;;4994361;28;20629;-53
2023/06/07 03:18:23;;;;;;;19.07;17.27;;;21.90;52.70;;;;;;4994229;28;20570;-56
2023/06/07 03:20:49;;;;;;;19.77;17.77;;;21.90;52.80;;;;;;4993952;28;20207;-53
2023/06/07 03:23:15;;;;;;;20.30;18.43;;;21.90;52.80;;;;;;4994004;28;20187;-53
2023/06/07 03:25:41;;;;;;;20.17;18.30;;;21.90;52.80;;;;;;4993939;28;20221;-56
2023/06/07 03:28:07;;;;;;;18.03;16.23;;;21.90;52.80;;;;;;4994177;28;20430;-52
2023/06/07 03:30:33;;;;;;;20.70;18.80;;;21.90;52.90;;;;;;4993919;28;20407;-53
2023/06/07 03:32:58;;;;;;;20.20;18.27;;;21.90;53.00;;;;;;4994054;28;20171;-58
2023/06/07 03:35:24;;;;;;;21.13;18.93;;;21.90;53.10;;;;;;4993946;28;20179;-58
2023/06/07 03:37:50;;;;;;;19.87;18.03;;;21.90;53.20;;;;;;4993732;28;20215;-55
2023/06/07 03:40:16;;;;;;;21.00;18.90;;;21.90;53.20;;;;;;4993963;28;20426;-58
2023/06/07 03:42:41;;;;;;;21.30;19.40;;;22.00;53.30;;;;;;4993819;28;20596;-56
2023/06/07 03:45:08;;;;;;;20.53;18.60;;;21.90;53.40;;;;;;4993715;28;20183;-55
2023/06/07 03:47:33;;;;;;;20.77;18.87;;;22.00;53.50;;;;;;4993846;28;20218;-60
2023/06/07 03:49:59;;;;;;;18.67;16.97;;;22.00;53.40;;;;;;4975925;28;20442;-54
2023/06/07 03:52:25;;;;;;;20.57;18.47;;;22.10;53.60;;;;;;4993689;28;20172;-58
2023/06/07 03:54:51;;;;;;;21.50;19.60;;;22.10;53.70;;;;;;4993549;28;20418;-55
2023/06/07 03:57:17;;;;;;;20.20;18.40;;;22.10;53.60;;;;;;4993421;28;20442;-55
2023/06/07 03:59:43;;;;;;;22.77;20.67;;;22.20;53.50;;;;;;4993160;28;20414;-59
2023/06/07 04:02:09;;;;;;;23.83;21.80;;;22.20;53.50;;;;;;4993659;28;20175;-58
2023/06/07 04:04:34;;;;;;;25.27;21.13;;;22.20;53.40;;;;;;4993192;28;20175;-54
2023/06/07 04:07:03;;;;;;;25.43;22.77;;;22.20;53.50;;;;;;4992543;28;20222;-60
2023/06/07 04:09:29;;;;;;;25.20;23.00;;;22.30;53.60;;;;;;4993327;28;20171;-55
2023/06/07 04:11:55;;;;;;;22.00;20.00;;;22.30;53.70;;;;;;4993269;28;20238;-55
2023/06/07 04:14:21;;;;;;;23.73;21.60;;;22.30;53.60;;;;;;4993297;28;20314;-57
2023/06/07 04:16:47;;;;;;;26.73;23.93;;;22.30;53.40;;;;;;4975791;28;20995;-55
2023/06/07 04:19:13;;;;;;;24.20;21.87;;;22.40;53.40;;;;;;4992807;28;20225;-55
2023/06/07 04:21:39;;;;;;;24.80;21.80;;;22.40;53.60;;;;;;4975686;28;20419;-58
2023/06/07 04:24:05;;;;;;;23.17;21.17;;;22.40;53.50;;;;;;4993115;28;20168;-55
2023/06/07 04:26:31;;;;;;;23.73;21.60;;;22.40;53.30;;;;;;4992876;28;20454;-55
2023/06/07 04:29:00;;;;;;;23.40;21.00;;;22.50;53.40;;;;;;4992958;28;20411;-56
2023/06/07 04:31:34;;;;;;;23.40;21.20;;;22.50;53.20;;;;;;4993076;28;20167;-53
2023/06/07 04:34:01;;;;;;;22.90;20.70;;;22.50;53.40;;;;;;4992819;28;20411;-58
2023/06/07 04:36:30;;;;;;;24.53;22.10;;;22.60;53.20;;;;;;4992951;28;20411;-55
2023/06/07 04:38:56;;;;;;;26.13;23.43;;;22.60;53.00;;;;;;4992897;28;20793;-55
2023/06/07 04:41:30;;;;;;;21.80;19.70;;;22.60;53.10;;;;;;4975207;28;20410;-58
2023/06/07 04:43:56;;;;;;;23.50;21.27;;;22.70;53.00;;;;;;4993001;28;20453;-58
2023/06/07 04:46:22;;;;;;;23.40;21.00;;;22.70;53.00;;;;;;4992410;28;20461;-52
2023/06/07 04:48:47;;;;;;;27.80;21.63;;;22.80;52.70;;;;;;4992596;28;20402;-58
2023/06/07 04:51:13;;;;;;;22.43;20.33;;;22.80;52.80;;;;;;4992602;28;20547;-57
2023/06/07 04:53:41;;;;;;;22.40;20.20;;;22.90;53.00;;;;;;4992634;28;20177;-54
2023/06/07 04:56:08;;;;;;;20.10;18.10;;;22.80;52.60;;;;;;4992844;28;20290;-58
2023/06/07 04:58:33;;;;;;;23.87;21.47;;;22.80;52.20;;;;;;4975149;28;20492;-55
2023/06/07 05:01:00;;;;;;;26.53;23.83;;;22.80;52.00;;;;;;4992473;28;20415;-55
2023/06/07 05:03:25;;;;;;;42.80;27.03;;;22.80;52.10;;;;;;4992726;28;20493;-57
2023/06/07 05:05:52;;;;;;;22.87;20.77;;;22.80;51.80;;;;;;4992389;28;20565;-54
2023/06/07 05:08:18;;;;;;;24.50;21.97;;;22.70;51.70;;;;;;4992501;28;20414;-56
2023/06/07 05:10:45;;;;;;;22.40;20.10;;;22.70;51.60;;;;;;4992232;28;20403;-55
2023/06/07 05:13:11;;;;;;;19.50;17.63;;;22.70;51.70;;;;;;4992545;28;20480;-59
2023/06/07 05:15:37;;;;;;;22.63;20.50;;;22.80;51.80;;;;;;4992348;28;20925;-57
2023/06/07 05:18:03;;;;;;;20.80;18.70;;;22.80;51.80;;;;;;4994468;28;20223;-56
2023/06/07 05:20:29;;;;;;;23.23;19.67;;;22.80;51.40;;;;;;4996237;28;20434;-56
2023/06/07 05:22:56;;;;;;;22.50;20.43;;;22.80;51.50;;;;;;4996460;28;20769;-55
2023/06/07 05:25:21;;;;;;;22.93;20.87;;;22.80;51.70;;;;;;4996283;28;20425;-55
2023/06/07 05:27:49;;;;;;;21.40;19.27;;;22.80;51.40;;;;;;4996225;28;20422;-58
2023/06/07 05:30:16;;;;;;;20.60;18.80;;;22.80;51.30;;;;;;4995884;28;20194;-58
2023/06/07 05:32:42;;;;;;;23.40;21.30;;;22.80;51.00;;;;;;4996360;28;20877;-56
2023/06/07 05:35:09;;;;;;;23.90;21.80;;;22.90;51.10;;;;;;4996112;28;20907;-54
2023/06/07 05:37:34;;;;;;;22.07;20.20;;;22.90;51.30;;;;;;4996290;28;20936;-58
2023/06/07 05:40:00;;;;;;;21.80;19.83;;;23.00;51.30;;;;;;4995840;28;20430;-55
2023/06/07 05:42:26;;;;;;;25.43;23.23;;;23.00;51.10;;;;;;4978589;28;20211;-58
2023/06/07 05:44:53;;;;;;;26.43;24.00;;;23.00;51.10;;;;;;4995864;28;20175;-55
2023/06/07 05:47:25;;;;;;;24.70;22.50;;;23.10;51.20;;;;;;4995729;28;20553;-57
2023/06/07 05:49:52;;;;;;;25.07;22.67;;;23.10;51.30;;;;;;4996004;28;20394;-55
2023/06/07 05:52:18;;;;;;;27.03;21.00;;;23.20;51.30;;;;;;4995800;28;20428;-58
2023/06/07 05:54:49;;;;;;;26.97;24.53;;;23.20;51.20;;;;;;4995891;28;20493;-55
2023/06/07 05:57:15;;;;;;;23.10;20.63;;;23.20;51.00;;;;;;4995792;28;20430;-55
2023/06/07 05:59:41;;;;;;;24.40;22.17;;;23.20;50.80;;;;;;4995502;28;20473;-58
2023/06/07 06:02:07;;;;;;;22.40;20.27;;;23.20;51.20;;;;;;4995747;28;20486;-53
2023/06/07 06:04:33;;;;;;;26.00;21.70;;;23.20;51.20;;;;;;4995525;28;20508;-55
2023/06/07 06:07:02;;;;;;;25.10;22.90;;;23.30;51.30;;;;;;4995546;28;20218;-52
2023/06/07 06:09:29;;;;;;;25.47;22.90;;;23.30;51.00;;;;;;4995390;28;20441;-55
2023/06/07 06:11:55;;;;;;;23.50;21.23;;;23.30;50.90;;;;;;4995509;28;20414;-54
2023/06/07 06:14:22;;;;;;;22.87;20.60;;;23.30;50.70;;;;;;4995422;28;20571;-52
2023/06/07 06:16:48;;;;;;;23.00;20.80;;;23.30;50.90;;;;;;4995184;28;20446;-55
2023/06/07 06:19:13;;;;;;;22.70;20.67;;;23.50;51.10;;;;;;4995245;28;20418;-55
2023/06/07 06:21:39;;;;;;;21.73;19.70;;;23.60;50.90;;;;;;4995316;28;20784;-53
2023/06/07 06:24:06;;;;;;;24.60;22.20;;;23.60;50.30;;;;;;4977918;28;20458;-52
2023/06/07 06:26:32;;;;;;;22.90;21.00;;;23.70;50.40;;;;;;4994955;28;20211;-56
2023/06/07 06:28:58;;;;;;;19.80;17.73;;;23.80;50.40;;;;;;4994781;28;20434;-53
2023/06/07 06:31:25;;;;;;;21.33;19.23;;;23.90;50.20;;;;;;4994913;28;20964;-52
2023/06/07 06:33:51;;;;;;;20.80;19.00;;;23.90;50.20;;;;;;4995221;28;20241;-52
2023/06/07 06:36:17;;;;;;;22.67;20.27;;;24.00;50.30;;;;;;4995082;28;20918;-51
2023/06/07 06:38:42;;;;;;;20.90;18.90;;;24.10;50.10;;;;;;4994951;28;20195;-55
2023/06/07 06:41:10;;;;;;;20.53;18.60;;;24.10;49.40;;;;;;4994729;28;20418;-53
2023/06/07 06:43:36;;;;;;;21.93;19.70;;;24.20;48.70;;;;;;4994964;28;20426;-52
2023/06/07 06:46:01;;;;;;;21.87;19.90;;;24.20;48.90;;;;;;4994668;28;20450;-55
2023/06/07 06:48:27;;;;;;;20.87;18.67;;;24.20;48.60;;;;;;4995123;28;20434;-53
2023/06/07 06:50:53;;;;;;;22.77;20.60;;;24.20;48.60;;;;;;4994635;28;20181;-52
2023/06/07 06:53:19;;;;;;;23.43;21.30;;;24.20;48.40;;;;;;4994731;28;20258;-54
2023/06/07 06:55:44;;;;;;;24.30;21.80;;;24.20;49.40;;;;;;4994300;28;20183;-52
2023/06/07 06:58:10;;;;;;;20.00;18.20;;;24.30;49.20;;;;;;4992949;28;20199;-52
2023/06/07 07:00:39;;;;;;;21.57;19.67;;;24.30;49.30;;;;;;4994407;28;20171;-52
2023/06/07 07:03:05;;;;;;;22.27;20.20;;;24.40;48.60;;;;;;4994420;28;20509;-52
2023/06/07 07:05:31;;;;;;;23.37;20.97;;;24.40;48.20;;;;;;4994432;28;20458;-54
2023/06/07 07:07:57;;;;;;;22.70;20.60;;;24.40;48.30;;;;;;4994246;28;20457;-56
2023/06/07 07:10:23;;;;;;;20.87;19.03;;;24.30;48.40;;;;;;4994084;28;20477;-53
2023/06/07 07:12:48;;;;;;;24.70;22.60;;;24.30;48.10;;;;;;4994380;28;20411;-55
2023/06/07 07:15:14;;;;;;;25.20;22.73;;;24.30;47.80;;;;;;4993789;28;20190;-52
2023/06/07 07:17:48;;;;;;;22.53;20.43;;;24.30;48.00;;;;;;4994345;28;20566;-52
2023/06/07 07:20:15;;;;;;;20.67;18.67;;;24.30;48.10;;;;;;4993979;28;20629;-55
2023/06/07 07:22:43;;;;;;;24.60;22.17;;;24.30;48.30;;;;;;4994012;28;20568;-51
2023/06/07 07:25:10;;;;;;;24.40;22.10;;;24.40;48.90;;;;;;4994352;28;20446;-51
2023/06/07 07:27:36;;;;;;;21.17;19.17;;;24.40;49.10;;;;;;4993872;28;20457;-56
2023/06/07 07:30:04;;;;;;;23.63;21.27;;;24.50;48.20;;;;;;4993536;28;20402;-52
2023/06/07 07:32:30;;;;;;;23.70;21.27;;;24.50;48.50;;;;;;4993984;28;20410;-52
2023/06/07 07:34:56;;;;;;;22.93;20.80;;;24.60;48.40;;;;;;4993972;28;20762;-55
2023/06/07 07:37:22;;;;;;;23.80;20.70;;;24.70;48.60;;;;;;4993684;28;20437;-53
2023/06/07 07:39:47;;;;;;;24.03;21.93;;;24.80;48.70;;;;;;4993546;28;20179;-53
2023/06/07 07:42:13;;;;;;;21.87;19.83;;;24.80;48.10;;;;;;4992817;28;20176;-57
2023/06/07 07:44:39;;;;;;;21.00;18.87;;;24.90;48.10;;;;;;4993623;28;20414;-57
2023/06/07 07:47:05;;;;;;;21.70;19.70;;;24.90;47.60;;;;;;4993546;28;20210;-54
2023/06/07 07:49:31;;;;;;;22.40;20.20;;;25.00;48.10;;;;;;4993438;28;20279;-58
2023/06/07 07:51:57;;;;;;;19.03;17.43;;;25.10;48.30;;;;;;4993454;28;20963;-54
2023/06/07 07:54:23;;;;;;;23.20;21.00;;;25.10;48.20;;;;;;4976117;28;20418;-58
2023/06/07 07:56:48;;;;;;;22.67;20.30;;;25.20;47.80;;;;;;4993511;28;20191;-56
2023/06/07 07:59:14;;;;;;;22.93;20.93;;;25.30;47.80;;;;;;4993331;28;20176;-56
2023/06/07 08:01:40;;;;;;;23.60;21.57;;;25.30;47.50;;;;;;4993693;28;20207;-57
2023/06/07 08:04:05;;;;;;;24.03;21.93;;;25.30;46.90;;;;;;4993368;28;20612;-53
2023/06/07 08:06:32;;;;;;;25.83;23.33;;;25.30;47.00;;;;;;4992937;28;20218;-55
2023/06/07 08:08:58;;;;;;;26.03;23.70;;;25.30;47.10;;;;;;4975870;28;20199;-55
2023/06/07 08:11:24;;;;;;;21.63;19.47;;;25.30;47.40;;;;;;4993178;28;20430;-54
2023/06/07 08:13:56;;;;;;;20.03;18.33;;;25.30;46.90;;;;;;5089538;27;20537;-57
2023/06/07 08:16:22;;;;;;;21.87;19.83;;;25.40;45.80;;;;;;5089542;28;20475;-57
2023/06/07 08:18:54;;;;;;;20.83;18.93;;;25.40;46.60;;;;;;5089450;28;20213;-56
2023/06/07 08:21:20;;;;;;;21.67;18.87;;;25.40;46.70;;;;;;5088091;28;20472;-55
2023/06/07 08:23:46;;;;;;;19.60;17.97;;;25.60;46.60;;;;;;5088118;28;20398;-55
2023/06/07 08:26:11;;;;;;;21.70;19.90;;;25.70;45.80;;;;;;5089325;28;20175;-56
2023/06/07 08:28:37;;;;;;;23.83;21.73;;;25.70;45.60;;;;;;5089375;28;20167;-55
2023/06/07 08:31:03;;;;;;;21.37;19.37;;;25.70;45.50;;;;;;5089054;28;20169;-57
2023/06/07 08:33:29;;;;;;;19.40;17.70;;;25.80;45.10;;;;;;5089106;28;20672;-56
2023/06/07 08:35:55;;;;;;;18.37;16.57;;;25.90;46.00;;;;;;5087994;28;20402;-56
2023/06/07 08:38:21;;;;;;;21.67;19.77;;;26.00;45.60;;;;;;5088999;28;20479;-56
2023/06/07 08:40:47;;;;;;;20.80;18.90;;;26.10;45.60;;;;;;5088930;28;20172;-56
2023/06/07 08:43:12;;;;;;;19.73;17.93;;;26.10;45.60;;;;;;5089051;28;20172;-53
2023/06/07 08:45:39;;;;;;;20.23;18.30;;;26.20;45.20;;;;;;5089057;28;20191;-56
2023/06/07 08:48:06;;;;;;;21.80;17.50;;;26.50;45.90;;;;;;5088795;28;20286;-58
2023/06/07 08:50:33;;;;;;;18.47;16.73;;;26.70;45.40;;;;;;5088897;28;20406;-54
2023/06/07 08:53:06;;;;;;;18.30;16.70;;;26.80;43.60;;;;;;5088767;28;21017;-55
2023/06/07 08:55:33;;;;;;;22.90;20.80;;;26.90;43.20;;;;;;5088990;28;20417;-57
2023/06/07 08:57:59;;;;;;;19.07;17.07;;;26.90;42.60;;;;;;5087767;28;20483;-57
2023/06/07 09:00:25;;;;;;;18.50;16.83;;;27.00;42.10;;;;;;5088455;28;20406;-54
2023/06/07 09:02:52;;;;;;;19.60;17.70;;;27.00;43.30;;;;;;5088757;28;20408;-57
2023/06/07 09:05:22;;;;;;;19.27;17.23;;;27.10;43.50;;;;;;5088963;28;20437;-57
2023/06/07 09:07:49;;;;;;;20.70;18.80;;;27.10;42.60;;;;;;5088449;28;20454;-54
2023/06/07 09:10:17;;;;;;;19.03;17.30;;;27.10;40.70;;;;;;5088419;28;20783;-57
2023/06/07 09:12:46;;;;;;;19.40;17.73;;;27.00;41.60;;;;;;5088308;28;20466;-55
2023/06/07 09:15:20;;;;;;;21.93;19.90;;;27.10;42.40;;;;;;5088259;28;20402;-54
2023/06/07 09:17:56;;;;;;;20.33;18.40;;;27.00;42.20;;;;;;5088369;28;20877;-54
2023/06/07 09:20:24;;;;;;;21.37;19.40;;;27.00;42.30;;;;;;5088402;28;20394;-54
2023/06/07 09:23:01;;;;;;;19.73;17.83;;;27.00;42.40;;;;;;5088321;28;20449;-58
2023/06/07 09:25:27;;;;;;;19.60;17.60;;;27.00;42.40;;;;;;5074148;28;20766;-55
2023/06/07 09:27:54;;;;;;;19.80;18.10;;;27.00;42.70;;;;;;5074517;28;20985;-56
2023/06/07 09:30:21;;;;;;;20.03;18.33;;;27.10;42.60;;;;;;5074722;28;20415;-58
2023/06/07 09:32:48;;;;;;;21.67;19.87;;;27.30;41.60;;;;;;5074789;28;20478;-54
2023/06/07 09:35:15;;;;;;;21.07;19.23;;;27.40;41.30;;;;;;5073343;28;20481;-58
2023/06/07 09:37:46;;;;;;;25.23;19.60;;;27.40;41.30;;;;;;5074544;28;20497;-55
2023/06/07 09:40:16;;;;;;;21.40;19.40;;;27.40;41.70;;;;;;5074245;28;20391;-54
2023/06/07 09:42:43;;;;;;;22.40;20.50;;;27.60;41.80;;;;;;5074393;28;20411;-57
2023/06/07 09:45:17;;;;;;;21.57;19.97;;;27.70;41.40;;;;;;5074401;28;20933;-57
2023/06/07 09:47:43;;;;;;;22.27;19.97;;;27.90;41.00;;;;;;5074398;28;20899;-56
2023/06/07 09:50:11;;;;;;;21.03;18.93;;;28.00;41.00;;;;;;5074379;28;20754;-55
2023/06/07 09:52:37;;;;;;;20.47;18.73;;;28.10;40.50;;;;;;5074120;28;20576;-54
2023/06/07 09:55:06;;;;;;;18.47;16.83;;;28.20;41.00;;;;;;5074180;28;20403;-59
2023/06/07 09:57:37;;;;;;;21.43;19.17;;;28.30;40.80;;;;;;5074107;28;20426;-57
2023/06/07 10:00:16;;;;;;;20.97;19.20;;;28.50;40.60;;;;;;5074073;28;20508;-56
2023/06/07 10:02:43;;;;;;;21.23;19.47;;;28.60;39.80;;;;;;5074172;28;20865;-57
2023/06/07 10:05:12;;;;;;;19.23;17.53;;;28.60;38.30;;;;;;5073951;28;20497;-53
2023/06/07 10:07:44;;;;;;;19.40;17.50;;;28.70;39.30;;;;;;5074196;28;20427;-56
2023/06/07 10:10:11;;;;;;;20.87;19.07;;;28.80;39.10;;;;;;5073725;28;20421;-56
2023/06/07 10:12:42;;;;;;;18.20;16.70;;;28.90;38.80;;;;;;5073708;28;20467;-54
2023/06/07 10:15:13;;;;;;;18.63;17.20;;;29.00;38.80;;;;;;5074167;28;20750;-55
2023/06/07 10:17:55;;;;;;;20.93;19.00;;;29.00;38.10;;;;;;5073670;28;20428;-57
2023/06/07 10:20:35;;;;;;;18.90;17.20;;;29.00;37.70;;;;;;5073558;28;20440;-58
2023/06/07 10:23:04;;;;;;;19.50;17.80;;;29.00;39.40;;;;;;5074063;28;20387;-58
2023/06/07 10:25:36;;;;;;;19.17;17.30;;;28.90;37.80;;;;;;5073710;28;20909;-54
2023/06/07 10:28:23;;;;;;;18.07;16.13;;;28.90;37.50;;;;;;5073452;28;20464;-54
2023/06/07 10:30:57;;;;;;;21.27;19.47;;;28.80;37.60;;;;;;5073433;28;20456;-58
2023/06/07 10:33:27;;;;;;;18.20;16.70;;;28.80;38.00;;;;;;5073429;28;20489;-54
2023/06/07 10:35:54;;;;;;;18.90;17.30;;;28.90;37.70;;;;;;5072514;28;20491;-56
2023/06/07 10:38:20;;;;;;;16.33;15.10;;;28.90;36.90;;;;;;5073257;28;20564;-55
2023/06/07 10:40:46;;;;;;;15.87;14.57;;;29.00;36.70;;;;;;5073040;28;20880;-55
2023/06/07 10:43:12;;;;;;;17.20;15.60;;;28.90;36.90;;;;;;5073314;28;20558;-57
2023/06/07 10:45:38;;;;;;;15.13;13.70;;;29.00;36.80;;;;;;5073314;28;20846;-55
2023/06/07 10:48:32;;;;;;;16.90;15.10;;;28.90;36.00;;;;;;5073142;28;20199;-57
2023/06/07 10:50:58;;;;;;;15.43;14.00;;;29.00;37.80;;;;;;5072853;28;20173;-54
2023/06/07 10:53:24;;;;;;;16.77;15.30;;;29.00;38.40;;;;;;5073315;28;21026;-56
2023/06/07 10:55:50;;;;;;;18.63;15.67;;;29.00;38.20;;;;;;5072996;28;20578;-56
2023/06/07 10:58:27;;;;;;;16.20;14.70;;;28.90;35.90;;;;;;5072817;28;20507;-55
2023/06/07 11:00:54;;;;;;;18.00;14.47;;;28.80;35.90;;;;;;5073069;28;20179;-57
2023/06/07 11:03:23;;;;;;;15.33;14.13;;;28.70;37.20;;;;;;5073163;28;20978;-55
2023/06/07 11:05:57;;;;;;;15.03;13.73;;;28.70;36.40;;;;;;5073142;28;20407;-55
2023/06/07 11:08:27;;;;;;;11.83;10.83;;;28.70;36.20;;;;;;5072880;28;20426;-58
2023/06/07 11:11:00;;;;;;;12.50;11.30;;;28.60;35.70;;;;;;5072850;28;20395;-55
2023/06/07 11:13:44;;;;;;;10.43;9.50;;;28.50;36.20;;;;;;5072638;28;20962;-57
2023/06/07 11:16:28;;;;;;;12.03;10.97;;;28.40;35.40;;;;;;5072537;28;20743;-53
2023/06/07 11:18:57;;;;;;;12.93;11.73;;;28.30;35.70;;;;;;5072853;28;20403;-55
2023/06/07 11:21:30;;;;;;;12.70;11.20;;;28.30;35.80;;;;;;5072402;28;20407;-56
2023/06/07 11:24:14;;;;;;;13.63;12.37;;;28.10;35.60;;;;;;5072555;28;20430;-54
2023/06/07 11:26:40;;;;;;;12.70;11.50;;;28.00;35.80;;;;;;5072593;28;20423;-55
2023/06/07 11:29:09;;;;;;;12.60;11.50;;;27.90;36.20;;;;;;5072539;28;20429;-55
2023/06/07 11:31:35;;;;;;;12.40;11.20;;;27.70;36.20;;;;;;5072356;28;20486;-55
2023/06/07 11:34:02;;;;;;;12.10;11.03;;;27.70;35.90;;;;;;5072631;28;20414;-58
2023/06/07 11:36:31;;;;;;;13.23;12.03;;;27.50;37.00;;;;;;5072319;28;20476;-57
2023/06/07 11:39:01;;;;;;;13.90;12.80;;;27.50;37.10;;;;;;5072522;28;20808;-54
2023/06/07 11:41:27;;;;;;;14.30;12.87;;;27.40;37.10;;;;;;5072068;28;20988;-57
2023/06/07 11:43:53;;;;;;;13.60;12.50;;;27.40;38.20;;;;;;5072307;28;20403;-55
2023/06/07 11:46:20;;;;;;;15.00;13.53;;;27.40;38.10;;;;;;5072316;28;20407;-56
2023/06/07 11:48:46;;;;;;;12.30;11.30;;;27.40;37.70;;;;;;5072116;28;20212;-53
2023/06/07 11:51:12;;;;;;;14.33;11.30;;;27.40;37.70;;;;;;5072011;28;20438;-57
2023/06/07 11:53:38;;;;;;;14.30;13.03;;;27.40;38.00;;;;;;5071925;28;20196;-58
2023/06/07 11:56:04;;;;;;;11.73;10.63;;;27.50;37.50;;;;;;5072356;28;20402;-56
2023/06/07 11:58:31;;;;;;;11.70;10.50;;;27.50;36.80;;;;;;5072004;28;20514;-58
2023/06/07 12:00:57;;;;;;;11.20;10.23;;;27.50;35.90;;;;;;5071981;28;20806;-55
2023/06/07 12:03:24;;;;;;;10.90;10.00;;;27.60;37.10;;;;;;5072018;28;20417;-54
2023/06/07 12:05:51;;;;;;;11.53;9.90;;;27.60;36.50;;;;;;5072257;28;20400;-58
2023/06/07 12:08:17;;;;;;;11.57;10.40;;;27.70;37.00;;;;;;5072051;28;20514;-54
2023/06/07 12:10:51;;;;;;;10.50;9.50;;;27.70;35.30;;;;;;5071960;28;20398;-55
2023/06/07 12:13:19;;;;;;;11.67;10.70;;;27.70;35.50;;;;;;5071798;28;20459;-56
2023/06/07 12:15:56;;;;;;;12.67;11.33;;;27.70;35.90;;;;;;5071866;28;20403;-54
2023/06/07 12:18:26;;;;;;;11.90;10.80;;;27.80;35.70;;;;;;5071722;28;20460;-56
2023/06/07 12:21:02;;;;;;;11.20;10.03;;;27.80;36.30;;;;;;5071605;28;20436;-54
2023/06/07 12:23:28;;;;;;;10.50;9.50;;;27.80;35.70;;;;;;5071788;28;20410;-56
2023/06/07 12:26:11;;;;;;;9.53;8.73;;;27.80;35.20;;;;;;5072069;28;20409;-55
2023/06/07 12:28:38;;;;;;;10.80;9.80;;;27.90;34.40;;;;;;5071779;28;20183;-55
2023/06/07 12:31:31;;;;;;;10.67;9.67;;;27.90;34.90;;;;;;5071437;28;20501;-56